sensor_id;sensor_type;location;lat;lon;timestamp;P1;durP1;ratioP1;P2;durP2;ratioP2
2211;SDS011;48849;48.758;9.158;2022-11-11T00:00:01;8.45;;;6.55;;
2211;SDS011;48849;48.758;9.158;2022-11-11T00:02:28;6.50;;;5.85;;
2211;SDS011;48849;48.758;9.158;2022-11-11T00:04:55;11.07;;;6.22;;
2211;SDS011;48849;48.758;9.158;2022-11-11T00:07:22;8.30;;;5.80;;
2211;SDS011;48849;48.758;9.158;2022-11-11T00:09:48;7.90;;;5.72;;
2211;SDS011;48849;48.758;9.158;2022-11-11T00:12:15;7.38;;;5.63;;
2211;SDS011;48849;48.758;9.158;2022-11-11T00:14:42;8.90;;;5.72;;
2211;SDS011;48849;48.758;9.158;2022-11-11T00:17:10;6.38;;;5.53;;
2211;SDS011;48849;48.758;9.158;2022-11-11T00:19:55;9.98;;;6.80;;
2211;SDS011;48849;48.758;9.158;2022-11-11T00:22:40;8.23;;;6.15;;
2211;SDS011;48849;48.758;9.158;2022-11-11T00:25:24;5.95;;;5.40;;
2211;SDS011;48849;48.758;9.158;2022-11-11T00:27:51;7.20;;;6.30;;
2211;SDS011;48849;48.758;9.158;2022-11-11T00:30:18;9.50;;;6.95;;
2211;SDS011;48849;48.758;9.158;2022-11-11T00:32:46;9.05;;;6.78;;
2211;SDS011;48849;48.758;9.158;2022-11-11T00:35:13;8.43;;;6.80;;
2211;SDS011;48849;48.758;9.158;2022-11-11T00:38:05;9.27;;;6.47;;
2211;SDS011;48849;48.758;9.158;2022-11-11T00:40:32;7.03;;;6.32;;
2211;SDS011;48849;48.758;9.158;2022-11-11T00:42:59;9.35;;;7.00;;
2211;SDS011;48849;48.758;9.158;2022-11-11T00:45:26;7.75;;;6.53;;
2211;SDS011;48849;48.758;9.158;2022-11-11T00:47:54;10.57;;;7.18;;
2211;SDS011;48849;48.758;9.158;2022-11-11T00:50:38;9.25;;;6.82;;
2211;SDS011;48849;48.758;9.158;2022-11-11T00:53:24;8.68;;;6.82;;
2211;SDS011;48849;48.758;9.158;2022-11-11T00:55:52;7.78;;;6.70;;
2211;SDS011;48849;48.758;9.158;2022-11-11T00:58:19;9.63;;;6.72;;
2211;SDS011;48849;48.758;9.158;2022-11-11T01:00:46;9.88;;;6.63;;
2211;SDS011;48849;48.758;9.158;2022-11-11T01:03:15;10.13;;;6.72;;
2211;SDS011;48849;48.758;9.158;2022-11-11T01:05:42;8.05;;;7.25;;
2211;SDS011;48849;48.758;9.158;2022-11-11T01:08:09;7.53;;;6.35;;
2211;SDS011;48849;48.758;9.158;2022-11-11T01:10:35;7.97;;;6.50;;
2211;SDS011;48849;48.758;9.158;2022-11-11T01:13:12;9.02;;;6.75;;
2211;SDS011;48849;48.758;9.158;2022-11-11T01:15:42;7.85;;;7.07;;
2211;SDS011;48849;48.758;9.158;2022-11-11T01:18:11;10.15;;;7.07;;
2211;SDS011;48849;48.758;9.158;2022-11-11T01:20:40;8.95;;;7.32;;
2211;SDS011;48849;48.758;9.158;2022-11-11T01:23:08;7.22;;;6.50;;
2211;SDS011;48849;48.758;9.158;2022-11-11T01:25:37;8.73;;;6.80;;
2211;SDS011;48849;48.758;9.158;2022-11-11T01:28:05;7.38;;;6.47;;
2211;SDS011;48849;48.758;9.158;2022-11-11T01:30:33;8.52;;;6.57;;
2211;SDS011;48849;48.758;9.158;2022-11-11T01:33:01;8.63;;;7.10;;
2211;SDS011;48849;48.758;9.158;2022-11-11T01:35:28;8.73;;;6.25;;
2211;SDS011;48849;48.758;9.158;2022-11-11T01:37:56;9.68;;;6.82;;
2211;SDS011;48849;48.758;9.158;2022-11-11T01:40:23;6.25;;;5.45;;
2211;SDS011;48849;48.758;9.158;2022-11-11T01:42:51;9.20;;;6.80;;
2211;SDS011;48849;48.758;9.158;2022-11-11T01:48:11;7.70;;;6.95;;
2211;SDS011;48849;48.758;9.158;2022-11-11T01:50:59;9.00;;;7.55;;
2211;SDS011;48849;48.758;9.158;2022-11-11T01:53:29;9.80;;;6.47;;
2211;SDS011;48849;48.758;9.158;2022-11-11T01:55:57;8.30;;;6.10;;
2211;SDS011;48849;48.758;9.158;2022-11-11T01:58:25;5.93;;;5.43;;
2211;SDS011;48849;48.758;9.158;2022-11-11T02:00:54;7.03;;;5.53;;
2211;SDS011;48849;48.758;9.158;2022-11-11T02:03:21;7.38;;;5.75;;
2211;SDS011;48849;48.758;9.158;2022-11-11T02:05:50;7.68;;;5.65;;
2211;SDS011;48849;48.758;9.158;2022-11-11T02:08:20;6.68;;;5.53;;
2211;SDS011;48849;48.758;9.158;2022-11-11T02:10:58;7.85;;;6.15;;
2211;SDS011;48849;48.758;9.158;2022-11-11T02:13:27;7.05;;;5.35;;
2211;SDS011;48849;48.758;9.158;2022-11-11T02:16:13;8.27;;;5.70;;
2211;SDS011;48849;48.758;9.158;2022-11-11T02:18:40;9.65;;;6.13;;
2211;SDS011;48849;48.758;9.158;2022-11-11T02:21:08;10.77;;;5.45;;
2211;SDS011;48849;48.758;9.158;2022-11-11T02:23:40;5.90;;;5.40;;
2211;SDS011;48849;48.758;9.158;2022-11-11T02:26:12;5.05;;;4.65;;
2211;SDS011;48849;48.758;9.158;2022-11-11T02:28:42;7.28;;;5.85;;
2211;SDS011;48849;48.758;9.158;2022-11-11T02:31:09;6.68;;;5.97;;
2211;SDS011;48849;48.758;9.158;2022-11-11T02:33:37;5.60;;;5.07;;
2211;SDS011;48849;48.758;9.158;2022-11-11T02:36:04;7.57;;;5.10;;
2211;SDS011;48849;48.758;9.158;2022-11-11T02:38:35;5.45;;;4.80;;
2211;SDS011;48849;48.758;9.158;2022-11-11T02:41:02;8.57;;;5.25;;
2211;SDS011;48849;48.758;9.158;2022-11-11T02:43:48;8.88;;;4.90;;
2211;SDS011;48849;48.758;9.158;2022-11-11T02:46:15;6.95;;;5.45;;
2211;SDS011;48849;48.758;9.158;2022-11-11T02:48:42;6.85;;;5.32;;
2211;SDS011;48849;48.758;9.158;2022-11-11T02:51:08;10.23;;;6.05;;
2211;SDS011;48849;48.758;9.158;2022-11-11T02:53:35;6.80;;;5.50;;
2211;SDS011;48849;48.758;9.158;2022-11-11T02:56:02;6.53;;;5.45;;
2211;SDS011;48849;48.758;9.158;2022-11-11T02:58:29;8.60;;;5.70;;
2211;SDS011;48849;48.758;9.158;2022-11-11T03:00:58;6.82;;;6.15;;
2211;SDS011;48849;48.758;9.158;2022-11-11T03:03:24;7.18;;;5.97;;
2211;SDS011;48849;48.758;9.158;2022-11-11T03:05:51;7.82;;;5.80;;
2211;SDS011;48849;48.758;9.158;2022-11-11T03:08:18;6.65;;;5.50;;
2211;SDS011;48849;48.758;9.158;2022-11-11T03:10:45;8.48;;;5.93;;
2211;SDS011;48849;48.758;9.158;2022-11-11T03:13:12;8.40;;;5.78;;
2211;SDS011;48849;48.758;9.158;2022-11-11T03:15:39;6.90;;;5.85;;
2211;SDS011;48849;48.758;9.158;2022-11-11T03:18:08;7.50;;;5.55;;
2211;SDS011;48849;48.758;9.158;2022-11-11T03:20:34;6.75;;;5.90;;
2211;SDS011;48849;48.758;9.158;2022-11-11T03:23:18;9.05;;;5.85;;
2211;SDS011;48849;48.758;9.158;2022-11-11T03:25:45;5.65;;;5.15;;
2211;SDS011;48849;48.758;9.158;2022-11-11T03:28:13;5.72;;;5.10;;
2211;SDS011;48849;48.758;9.158;2022-11-11T03:30:41;6.40;;;5.80;;
2211;SDS011;48849;48.758;9.158;2022-11-11T03:33:11;10.27;;;5.40;;
2211;SDS011;48849;48.758;9.158;2022-11-11T03:35:39;5.68;;;4.97;;
2211;SDS011;48849;48.758;9.158;2022-11-11T03:38:06;6.93;;;5.30;;
2211;SDS011;48849;48.758;9.158;2022-11-11T03:40:41;8.55;;;5.72;;
2211;SDS011;48849;48.758;9.158;2022-11-11T03:43:08;6.82;;;5.55;;
2211;SDS011;48849;48.758;9.158;2022-11-11T03:45:35;5.03;;;4.63;;
2211;SDS011;48849;48.758;9.158;2022-11-11T03:48:02;6.60;;;4.90;;
2211;SDS011;48849;48.758;9.158;2022-11-11T03:50:31;6.15;;;4.80;;
2211;SDS011;48849;48.758;9.158;2022-11-11T03:52:57;7.35;;;4.75;;
2211;SDS011;48849;48.758;9.158;2022-11-11T03:55:24;9.35;;;4.80;;
2211;SDS011;48849;48.758;9.158;2022-11-11T03:57:51;5.97;;;4.78;;
2211;SDS011;48849;48.758;9.158;2022-11-11T04:00:19;6.28;;;5.68;;
2211;SDS011;48849;48.758;9.158;2022-11-11T04:02:47;6.07;;;5.03;;
2211;SDS011;48849;48.758;9.158;2022-11-11T04:05:33;5.78;;;5.10;;
2211;SDS011;48849;48.758;9.158;2022-11-11T04:08:18;5.53;;;4.90;;
2211;SDS011;48849;48.758;9.158;2022-11-11T04:11:05;7.05;;;4.55;;
2211;SDS011;48849;48.758;9.158;2022-11-11T04:13:34;5.53;;;4.80;;
2211;SDS011;48849;48.758;9.158;2022-11-11T04:16:19;5.50;;;4.88;;
2211;SDS011;48849;48.758;9.158;2022-11-11T04:18:46;5.25;;;4.75;;
2211;SDS011;48849;48.758;9.158;2022-11-11T04:21:31;7.82;;;5.28;;
2211;SDS011;48849;48.758;9.158;2022-11-11T04:24:11;5.85;;;5.22;;
2211;SDS011;48849;48.758;9.158;2022-11-11T04:26:57;6.90;;;4.72;;
2211;SDS011;48849;48.758;9.158;2022-11-11T04:29:24;6.57;;;5.45;;
2211;SDS011;48849;48.758;9.158;2022-11-11T04:31:53;6.35;;;5.05;;
2211;SDS011;48849;48.758;9.158;2022-11-11T04:34:39;7.07;;;5.43;;
2211;SDS011;48849;48.758;9.158;2022-11-11T04:37:07;5.55;;;5.00;;
2211;SDS011;48849;48.758;9.158;2022-11-11T04:39:34;9.60;;;5.50;;
2211;SDS011;48849;48.758;9.158;2022-11-11T04:42:18;5.63;;;4.50;;
2211;SDS011;48849;48.758;9.158;2022-11-11T04:44:45;5.38;;;4.97;;
2211;SDS011;48849;48.758;9.158;2022-11-11T04:47:29;7.30;;;5.60;;
2211;SDS011;48849;48.758;9.158;2022-11-11T04:49:56;7.80;;;6.13;;
2211;SDS011;48849;48.758;9.158;2022-11-11T04:52:24;8.25;;;5.28;;
2211;SDS011;48849;48.758;9.158;2022-11-11T04:54:54;6.20;;;5.60;;
2211;SDS011;48849;48.758;9.158;2022-11-11T04:57:40;5.00;;;4.50;;
2211;SDS011;48849;48.758;9.158;2022-11-11T05:00:08;6.05;;;5.25;;
2211;SDS011;48849;48.758;9.158;2022-11-11T05:02:36;5.78;;;5.18;;
2211;SDS011;48849;48.758;9.158;2022-11-11T05:05:21;5.60;;;4.97;;
2211;SDS011;48849;48.758;9.158;2022-11-11T05:07:49;5.22;;;4.72;;
2211;SDS011;48849;48.758;9.158;2022-11-11T05:10:33;6.75;;;5.20;;
2211;SDS011;48849;48.758;9.158;2022-11-11T05:13:00;5.18;;;4.68;;
2211;SDS011;48849;48.758;9.158;2022-11-11T05:15:45;6.15;;;4.47;;
2211;SDS011;48849;48.758;9.158;2022-11-11T05:18:29;5.22;;;4.72;;
2211;SDS011;48849;48.758;9.158;2022-11-11T05:21:15;5.95;;;4.55;;
2211;SDS011;48849;48.758;9.158;2022-11-11T05:23:49;9.02;;;5.65;;
2211;SDS011;48849;48.758;9.158;2022-11-11T05:26:33;5.85;;;5.35;;
2211;SDS011;48849;48.758;9.158;2022-11-11T05:29:01;7.40;;;4.95;;
2211;SDS011;48849;48.758;9.158;2022-11-11T05:31:28;6.22;;;5.32;;
2211;SDS011;48849;48.758;9.158;2022-11-11T05:33:55;5.97;;;5.45;;
2211;SDS011;48849;48.758;9.158;2022-11-11T05:36:22;6.05;;;5.53;;
2211;SDS011;48849;48.758;9.158;2022-11-11T05:38:50;5.30;;;4.78;;
2211;SDS011;48849;48.758;9.158;2022-11-11T05:41:17;5.53;;;5.00;;
2211;SDS011;48849;48.758;9.158;2022-11-11T05:43:43;7.45;;;5.10;;
2211;SDS011;48849;48.758;9.158;2022-11-11T05:46:10;6.82;;;4.90;;
2211;SDS011;48849;48.758;9.158;2022-11-11T05:48:37;5.65;;;5.15;;
2211;SDS011;48849;48.758;9.158;2022-11-11T05:51:24;6.03;;;4.40;;
2211;SDS011;48849;48.758;9.158;2022-11-11T05:53:56;6.65;;;4.60;;
2211;SDS011;48849;48.758;9.158;2022-11-11T05:56:23;6.35;;;5.15;;
2211;SDS011;48849;48.758;9.158;2022-11-11T05:58:50;5.15;;;4.65;;
2211;SDS011;48849;48.758;9.158;2022-11-11T06:01:17;5.75;;;4.70;;
2211;SDS011;48849;48.758;9.158;2022-11-11T06:03:44;7.93;;;6.07;;
2211;SDS011;48849;48.758;9.158;2022-11-11T06:06:10;5.35;;;4.85;;
2211;SDS011;48849;48.758;9.158;2022-11-11T06:08:38;4.60;;;4.20;;
2211;SDS011;48849;48.758;9.158;2022-11-11T06:11:06;5.80;;;5.20;;
2211;SDS011;48849;48.758;9.158;2022-11-11T06:13:33;5.00;;;4.13;;
2211;SDS011;48849;48.758;9.158;2022-11-11T06:15:59;6.82;;;4.70;;
2211;SDS011;48849;48.758;9.158;2022-11-11T06:18:27;5.63;;;4.50;;
2211;SDS011;48849;48.758;9.158;2022-11-11T06:20:54;5.43;;;4.65;;
2211;SDS011;48849;48.758;9.158;2022-11-11T06:23:22;8.77;;;5.78;;
2211;SDS011;48849;48.758;9.158;2022-11-11T06:25:49;5.25;;;4.85;;
2211;SDS011;48849;48.758;9.158;2022-11-11T06:28:35;5.13;;;4.72;;
2211;SDS011;48849;48.758;9.158;2022-11-11T06:31:03;6.65;;;5.32;;
2211;SDS011;48849;48.758;9.158;2022-11-11T06:33:31;7.53;;;5.63;;
2211;SDS011;48849;48.758;9.158;2022-11-11T06:35:58;7.85;;;5.53;;
2211;SDS011;48849;48.758;9.158;2022-11-11T06:38:25;5.60;;;4.90;;
2211;SDS011;48849;48.758;9.158;2022-11-11T06:40:51;6.47;;;5.25;;
2211;SDS011;48849;48.758;9.158;2022-11-11T06:43:18;6.53;;;6.03;;
2211;SDS011;48849;48.758;9.158;2022-11-11T06:45:48;9.95;;;5.15;;
2211;SDS011;48849;48.758;9.158;2022-11-11T06:48:15;6.63;;;5.60;;
2211;SDS011;48849;48.758;9.158;2022-11-11T06:50:43;8.60;;;6.00;;
2211;SDS011;48849;48.758;9.158;2022-11-11T06:53:10;6.45;;;5.75;;
2211;SDS011;48849;48.758;9.158;2022-11-11T06:55:37;5.85;;;5.35;;
2211;SDS011;48849;48.758;9.158;2022-11-11T06:58:04;6.25;;;5.68;;
2211;SDS011;48849;48.758;9.158;2022-11-11T07:00:31;6.18;;;5.38;;
2211;SDS011;48849;48.758;9.158;2022-11-11T07:02:59;5.55;;;5.03;;
2211;SDS011;48849;48.758;9.158;2022-11-11T07:05:26;6.95;;;5.25;;
2211;SDS011;48849;48.758;9.158;2022-11-11T07:07:53;6.78;;;6.18;;
2211;SDS011;48849;48.758;9.158;2022-11-11T07:10:20;8.27;;;5.63;;
2211;SDS011;48849;48.758;9.158;2022-11-11T07:12:47;7.20;;;5.80;;
2211;SDS011;48849;48.758;9.158;2022-11-11T07:15:13;8.27;;;5.65;;
2211;SDS011;48849;48.758;9.158;2022-11-11T07:17:40;6.65;;;5.97;;
2211;SDS011;48849;48.758;9.158;2022-11-11T07:20:09;5.85;;;5.35;;
2211;SDS011;48849;48.758;9.158;2022-11-11T07:22:36;6.40;;;5.47;;
2211;SDS011;48849;48.758;9.158;2022-11-11T07:25:03;9.13;;;5.40;;
2211;SDS011;48849;48.758;9.158;2022-11-11T07:27:30;12.05;;;5.85;;
2211;SDS011;48849;48.758;9.158;2022-11-11T07:29:57;6.45;;;5.80;;
2211;SDS011;48849;48.758;9.158;2022-11-11T07:32:24;7.35;;;5.78;;
2211;SDS011;48849;48.758;9.158;2022-11-11T07:34:51;7.95;;;6.18;;
2211;SDS011;48849;48.758;9.158;2022-11-11T07:37:19;7.07;;;6.35;;
2211;SDS011;48849;48.758;9.158;2022-11-11T07:39:45;10.45;;;6.18;;
2211;SDS011;48849;48.758;9.158;2022-11-11T07:42:12;6.90;;;6.15;;
2211;SDS011;48849;48.758;9.158;2022-11-11T07:44:39;7.70;;;6.25;;
2211;SDS011;48849;48.758;9.158;2022-11-11T07:47:06;7.82;;;7.03;;
2211;SDS011;48849;48.758;9.158;2022-11-11T07:49:33;7.03;;;6.00;;
2211;SDS011;48849;48.758;9.158;2022-11-11T07:52:00;8.68;;;7.75;;
2211;SDS011;48849;48.758;9.158;2022-11-11T07:54:28;8.10;;;6.88;;
2211;SDS011;48849;48.758;9.158;2022-11-11T07:56:55;7.93;;;7.03;;
2211;SDS011;48849;48.758;9.158;2022-11-11T07:59:22;8.38;;;6.90;;
2211;SDS011;48849;48.758;9.158;2022-11-11T08:01:48;9.93;;;6.97;;
2211;SDS011;48849;48.758;9.158;2022-11-11T08:04:15;7.40;;;6.70;;
2211;SDS011;48849;48.758;9.158;2022-11-11T08:06:42;9.60;;;7.50;;
2211;SDS011;48849;48.758;9.158;2022-11-11T08:09:08;8.60;;;7.43;;
2211;SDS011;48849;48.758;9.158;2022-11-11T08:11:36;10.57;;;6.93;;
2211;SDS011;48849;48.758;9.158;2022-11-11T08:14:21;8.65;;;7.07;;
2211;SDS011;48849;48.758;9.158;2022-11-11T08:16:48;10.10;;;7.63;;
2211;SDS011;48849;48.758;9.158;2022-11-11T08:19:14;8.80;;;7.90;;
2211;SDS011;48849;48.758;9.158;2022-11-11T08:21:41;7.03;;;6.30;;
2211;SDS011;48849;48.758;9.158;2022-11-11T08:24:08;9.48;;;6.40;;
2211;SDS011;48849;48.758;9.158;2022-11-11T08:26:36;10.75;;;7.13;;
2211;SDS011;48849;48.758;9.158;2022-11-11T08:29:03;13.25;;;7.00;;
2211;SDS011;48849;48.758;9.158;2022-11-11T08:31:30;9.35;;;7.25;;
2211;SDS011;48849;48.758;9.158;2022-11-11T08:33:59;8.45;;;6.75;;
2211;SDS011;48849;48.758;9.158;2022-11-11T08:36:26;10.60;;;7.15;;
2211;SDS011;48849;48.758;9.158;2022-11-11T08:38:52;9.13;;;6.93;;
2211;SDS011;48849;48.758;9.158;2022-11-11T08:41:19;7.93;;;7.00;;
2211;SDS011;48849;48.758;9.158;2022-11-11T08:43:51;8.32;;;7.53;;
2211;SDS011;48849;48.758;9.158;2022-11-11T08:46:18;9.20;;;7.20;;
2211;SDS011;48849;48.758;9.158;2022-11-11T08:48:46;11.32;;;7.00;;
2211;SDS011;48849;48.758;9.158;2022-11-11T08:51:13;7.90;;;6.35;;
2211;SDS011;48849;48.758;9.158;2022-11-11T08:53:40;7.07;;;6.38;;
2211;SDS011;48849;48.758;9.158;2022-11-11T08:56:07;7.15;;;6.55;;
2211;SDS011;48849;48.758;9.158;2022-11-11T08:58:36;7.10;;;6.13;;
2211;SDS011;48849;48.758;9.158;2022-11-11T09:01:09;6.78;;;6.20;;
2211;SDS011;48849;48.758;9.158;2022-11-11T09:03:37;7.95;;;6.38;;
2211;SDS011;48849;48.758;9.158;2022-11-11T09:06:07;13.52;;;7.43;;
2211;SDS011;48849;48.758;9.158;2022-11-11T09:08:34;7.75;;;6.63;;
2211;SDS011;48849;48.758;9.158;2022-11-11T09:11:00;9.07;;;7.35;;
2211;SDS011;48849;48.758;9.158;2022-11-11T09:13:27;9.32;;;6.32;;
2211;SDS011;48849;48.758;9.158;2022-11-11T09:15:54;7.68;;;6.15;;
2211;SDS011;48849;48.758;9.158;2022-11-11T09:18:23;7.72;;;6.05;;
2211;SDS011;48849;48.758;9.158;2022-11-11T09:20:50;11.15;;;6.88;;
2211;SDS011;48849;48.758;9.158;2022-11-11T09:23:17;9.23;;;6.68;;
2211;SDS011;48849;48.758;9.158;2022-11-11T09:25:43;9.10;;;6.90;;
2211;SDS011;48849;48.758;9.158;2022-11-11T09:28:10;7.00;;;5.70;;
2211;SDS011;48849;48.758;9.158;2022-11-11T09:30:37;7.72;;;6.60;;
2211;SDS011;48849;48.758;9.158;2022-11-11T09:33:04;7.40;;;5.70;;
2211;SDS011;48849;48.758;9.158;2022-11-11T09:35:32;8.25;;;6.47;;
2211;SDS011;48849;48.758;9.158;2022-11-11T09:37:59;6.68;;;6.07;;
2211;SDS011;48849;48.758;9.158;2022-11-11T09:40:31;6.40;;;5.53;;
2211;SDS011;48849;48.758;9.158;2022-11-11T09:43:10;8.57;;;6.05;;
2211;SDS011;48849;48.758;9.158;2022-11-11T09:45:51;6.53;;;5.80;;
2211;SDS011;48849;48.758;9.158;2022-11-11T09:48:37;6.97;;;5.60;;
2211;SDS011;48849;48.758;9.158;2022-11-11T09:51:17;6.50;;;5.80;;
2211;SDS011;48849;48.758;9.158;2022-11-11T09:53:49;7.80;;;5.78;;
2211;SDS011;48849;48.758;9.158;2022-11-11T09:56:18;9.32;;;6.15;;
2211;SDS011;48849;48.758;9.158;2022-11-11T09:58:47;8.07;;;6.05;;
2211;SDS011;48849;48.758;9.158;2022-11-11T10:01:19;9.57;;;6.70;;
2211;SDS011;48849;48.758;9.158;2022-11-11T10:03:49;9.90;;;6.18;;
2211;SDS011;48849;48.758;9.158;2022-11-11T10:06:27;10.85;;;6.25;;
2211;SDS011;48849;48.758;9.158;2022-11-11T10:08:58;9.77;;;5.90;;
2211;SDS011;48849;48.758;9.158;2022-11-11T10:11:41;9.00;;;6.20;;
2211;SDS011;48849;48.758;9.158;2022-11-11T10:14:14;9.20;;;6.25;;
2211;SDS011;48849;48.758;9.158;2022-11-11T10:16:43;8.10;;;5.75;;
2211;SDS011;48849;48.758;9.158;2022-11-11T10:19:20;8.82;;;6.60;;
2211;SDS011;48849;48.758;9.158;2022-11-11T10:21:57;7.05;;;6.40;;
2211;SDS011;48849;48.758;9.158;2022-11-11T10:24:27;14.40;;;6.32;;
2211;SDS011;48849;48.758;9.158;2022-11-11T10:26:55;9.57;;;5.78;;
2211;SDS011;48849;48.758;9.158;2022-11-11T10:29:29;10.60;;;6.47;;
2211;SDS011;48849;48.758;9.158;2022-11-11T10:32:07;12.80;;;6.43;;
2211;SDS011;48849;48.758;9.158;2022-11-11T10:34:37;8.60;;;6.30;;
2211;SDS011;48849;48.758;9.158;2022-11-11T10:37:10;7.38;;;5.90;;
2211;SDS011;48849;48.758;9.158;2022-11-11T10:39:45;8.13;;;6.53;;
2211;SDS011;48849;48.758;9.158;2022-11-11T10:42:19;9.35;;;7.25;;
2211;SDS011;48849;48.758;9.158;2022-11-11T10:44:46;8.23;;;7.43;;
2211;SDS011;48849;48.758;9.158;2022-11-11T10:47:14;11.45;;;8.30;;
2211;SDS011;48849;48.758;9.158;2022-11-11T10:49:49;11.05;;;9.13;;
2211;SDS011;48849;48.758;9.158;2022-11-11T10:52:24;10.95;;;9.60;;
2211;SDS011;48849;48.758;9.158;2022-11-11T10:54:58;11.27;;;9.13;;
2211;SDS011;48849;48.758;9.158;2022-11-11T10:57:28;10.68;;;9.68;;
2211;SDS011;48849;48.758;9.158;2022-11-11T11:00:01;11.73;;;9.18;;
2211;SDS011;48849;48.758;9.158;2022-11-11T11:02:33;10.32;;;9.30;;
2211;SDS011;48849;48.758;9.158;2022-11-11T11:05:08;10.55;;;9.45;;
2211;SDS011;48849;48.758;9.158;2022-11-11T11:07:41;10.63;;;9.15;;
2211;SDS011;48849;48.758;9.158;2022-11-11T11:10:11;12.75;;;9.18;;
2211;SDS011;48849;48.758;9.158;2022-11-11T11:12:42;10.57;;;9.40;;
2211;SDS011;48849;48.758;9.158;2022-11-11T11:15:16;10.35;;;9.27;;
2211;SDS011;48849;48.758;9.158;2022-11-11T11:17:47;10.18;;;9.27;;
2211;SDS011;48849;48.758;9.158;2022-11-11T11:20:20;10.60;;;9.50;;
2211;SDS011;48849;48.758;9.158;2022-11-11T11:22:50;11.80;;;9.20;;
2211;SDS011;48849;48.758;9.158;2022-11-11T11:25:20;10.32;;;9.32;;
2211;SDS011;48849;48.758;9.158;2022-11-11T11:27:48;11.40;;;9.85;;
2211;SDS011;48849;48.758;9.158;2022-11-11T11:30:17;11.05;;;10.05;;
2211;SDS011;48849;48.758;9.158;2022-11-11T11:32:56;12.38;;;9.82;;
2211;SDS011;48849;48.758;9.158;2022-11-11T11:35:39;14.18;;;9.48;;
2211;SDS011;48849;48.758;9.158;2022-11-11T11:38:08;10.10;;;8.95;;
2211;SDS011;48849;48.758;9.158;2022-11-11T11:43:31;11.05;;;9.95;;
2211;SDS011;48849;48.758;9.158;2022-11-11T11:46:00;10.93;;;9.82;;
2211;SDS011;48849;48.758;9.158;2022-11-11T11:48:32;10.98;;;9.88;;
2211;SDS011;48849;48.758;9.158;2022-11-11T11:51:10;9.45;;;8.52;;
2211;SDS011;48849;48.758;9.158;2022-11-11T11:53:52;10.00;;;9.10;;
2211;SDS011;48849;48.758;9.158;2022-11-11T11:56:32;11.55;;;9.48;;
2211;SDS011;48849;48.758;9.158;2022-11-11T11:59:04;10.05;;;8.88;;
2211;SDS011;48849;48.758;9.158;2022-11-11T12:01:39;9.20;;;8.30;;
2211;SDS011;48849;48.758;9.158;2022-11-11T12:04:21;10.35;;;9.27;;
2211;SDS011;48849;48.758;9.158;2022-11-11T12:07:17;10.20;;;9.20;;
2211;SDS011;48849;48.758;9.158;2022-11-11T12:09:59;9.25;;;8.35;;
2211;SDS011;48849;48.758;9.158;2022-11-11T12:12:34;13.68;;;8.43;;
2211;SDS011;48849;48.758;9.158;2022-11-11T12:15:12;10.90;;;9.25;;
2211;SDS011;48849;48.758;9.158;2022-11-11T12:17:49;10.05;;;8.93;;
2211;SDS011;48849;48.758;9.158;2022-11-11T12:20:23;11.73;;;8.48;;
2211;SDS011;48849;48.758;9.158;2022-11-11T12:22:59;12.13;;;9.57;;
2211;SDS011;48849;48.758;9.158;2022-11-11T12:25:39;11.95;;;9.70;;
2211;SDS011;48849;48.758;9.158;2022-11-11T12:28:21;10.73;;;9.52;;
2211;SDS011;48849;48.758;9.158;2022-11-11T12:30:55;9.98;;;8.98;;
2211;SDS011;48849;48.758;9.158;2022-11-11T12:33:35;10.05;;;8.82;;
2211;SDS011;48849;48.758;9.158;2022-11-11T12:36:10;10.05;;;9.02;;
2211;SDS011;48849;48.758;9.158;2022-11-11T12:38:54;14.15;;;9.43;;
2211;SDS011;48849;48.758;9.158;2022-11-11T12:41:28;10.15;;;9.25;;
2211;SDS011;48849;48.758;9.158;2022-11-11T12:44:08;11.15;;;10.05;;
2211;SDS011;48849;48.758;9.158;2022-11-11T12:46:39;15.00;;;9.50;;
2211;SDS011;48849;48.758;9.158;2022-11-11T12:49:22;11.35;;;10.23;;
2211;SDS011;48849;48.758;9.158;2022-11-11T12:52:00;13.18;;;9.55;;
2211;SDS011;48849;48.758;9.158;2022-11-11T12:54:41;14.70;;;9.75;;
2211;SDS011;48849;48.758;9.158;2022-11-11T12:57:19;11.23;;;9.57;;
2211;SDS011;48849;48.758;9.158;2022-11-11T12:59:56;14.48;;;9.63;;
2211;SDS011;48849;48.758;9.158;2022-11-11T13:02:38;10.00;;;9.00;;
2211;SDS011;48849;48.758;9.158;2022-11-11T13:05:20;13.45;;;10.30;;
2211;SDS011;48849;48.758;9.158;2022-11-11T13:07:56;11.63;;;9.18;;
2211;SDS011;48849;48.758;9.158;2022-11-11T13:10:34;14.30;;;10.05;;
2211;SDS011;48849;48.758;9.158;2022-11-11T13:13:09;10.75;;;9.15;;
2211;SDS011;48849;48.758;9.158;2022-11-11T13:15:55;11.80;;;9.90;;
2211;SDS011;48849;48.758;9.158;2022-11-11T13:18:25;12.10;;;10.02;;
2211;SDS011;48849;48.758;9.158;2022-11-11T13:20:55;13.57;;;9.80;;
2211;SDS011;48849;48.758;9.158;2022-11-11T13:23:26;10.88;;;9.60;;
2211;SDS011;48849;48.758;9.158;2022-11-11T13:25:54;10.63;;;8.75;;
2211;SDS011;48849;48.758;9.158;2022-11-11T13:28:26;10.35;;;9.13;;
2211;SDS011;48849;48.758;9.158;2022-11-11T13:31:01;10.57;;;9.32;;
2211;SDS011;48849;48.758;9.158;2022-11-11T13:33:37;12.80;;;9.25;;
2211;SDS011;48849;48.758;9.158;2022-11-11T13:36:07;11.35;;;9.27;;
2211;SDS011;48849;48.758;9.158;2022-11-11T13:38:37;11.75;;;8.82;;
2211;SDS011;48849;48.758;9.158;2022-11-11T13:41:11;12.25;;;8.60;;
2211;SDS011;48849;48.758;9.158;2022-11-11T13:43:39;10.98;;;8.38;;
2211;SDS011;48849;48.758;9.158;2022-11-11T13:46:11;9.23;;;8.27;;
2211;SDS011;48849;48.758;9.158;2022-11-11T13:48:55;12.10;;;9.40;;
2211;SDS011;48849;48.758;9.158;2022-11-11T13:51:24;8.75;;;7.53;;
2211;SDS011;48849;48.758;9.158;2022-11-11T13:53:55;8.65;;;7.80;;
2211;SDS011;48849;48.758;9.158;2022-11-11T13:56:27;9.48;;;8.48;;
2211;SDS011;48849;48.758;9.158;2022-11-11T13:59:01;9.75;;;8.18;;
2211;SDS011;48849;48.758;9.158;2022-11-11T14:01:31;8.30;;;7.50;;
2211;SDS011;48849;48.758;9.158;2022-11-11T14:04:00;10.90;;;9.07;;
2211;SDS011;48849;48.758;9.158;2022-11-11T14:06:35;9.77;;;8.68;;
2211;SDS011;48849;48.758;9.158;2022-11-11T14:12:31;11.43;;;8.90;;
2211;SDS011;48849;48.758;9.158;2022-11-11T14:15:03;10.23;;;8.38;;
2211;SDS011;48849;48.758;9.158;2022-11-11T14:17:32;9.32;;;8.43;;
2211;SDS011;48849;48.758;9.158;2022-11-11T14:23:29;8.65;;;7.75;;
2211;SDS011;48849;48.758;9.158;2022-11-11T14:26:15;10.60;;;8.85;;
2211;SDS011;48849;48.758;9.158;2022-11-11T14:28:52;12.48;;;8.35;;
2211;SDS011;48849;48.758;9.158;2022-11-11T14:34:18;10.48;;;8.88;;
2211;SDS011;48849;48.758;9.158;2022-11-11T14:36:54;9.77;;;8.55;;
2211;SDS011;48849;48.758;9.158;2022-11-11T14:39:32;9.70;;;8.50;;
2211;SDS011;48849;48.758;9.158;2022-11-11T14:42:03;8.27;;;7.45;;
2211;SDS011;48849;48.758;9.158;2022-11-11T14:44:51;15.55;;;7.93;;
2211;SDS011;48849;48.758;9.158;2022-11-11T14:47:30;12.20;;;8.35;;
2211;SDS011;48849;48.758;9.158;2022-11-11T14:49:58;8.55;;;7.75;;
2211;SDS011;48849;48.758;9.158;2022-11-11T14:52:27;12.10;;;8.60;;
2211;SDS011;48849;48.758;9.158;2022-11-11T14:55:03;9.02;;;8.15;;
2211;SDS011;48849;48.758;9.158;2022-11-11T14:57:43;10.07;;;8.10;;
2211;SDS011;48849;48.758;9.158;2022-11-11T15:00:16;8.13;;;7.32;;
2211;SDS011;48849;48.758;9.158;2022-11-11T15:02:47;9.35;;;8.45;;
2211;SDS011;48849;48.758;9.158;2022-11-11T15:05:17;9.63;;;8.45;;
2211;SDS011;48849;48.758;9.158;2022-11-11T15:08:02;11.13;;;8.50;;
2211;SDS011;48849;48.758;9.158;2022-11-11T15:10:47;10.45;;;9.38;;
2211;SDS011;48849;48.758;9.158;2022-11-11T15:13:35;12.90;;;9.48;;
2211;SDS011;48849;48.758;9.158;2022-11-11T15:16:28;12.82;;;8.77;;
2211;SDS011;48849;48.758;9.158;2022-11-11T15:19:09;11.68;;;9.00;;
2211;SDS011;48849;48.758;9.158;2022-11-11T15:21:47;10.40;;;8.30;;
2211;SDS011;48849;48.758;9.158;2022-11-11T15:24:26;11.57;;;8.93;;
2211;SDS011;48849;48.758;9.158;2022-11-11T15:27:04;10.32;;;9.23;;
2211;SDS011;48849;48.758;9.158;2022-11-11T15:29:56;10.70;;;9.60;;
2211;SDS011;48849;48.758;9.158;2022-11-11T15:32:32;13.73;;;10.50;;
2211;SDS011;48849;48.758;9.158;2022-11-11T15:35:13;16.23;;;10.15;;
2211;SDS011;48849;48.758;9.158;2022-11-11T15:37:50;12.20;;;8.40;;
2211;SDS011;48849;48.758;9.158;2022-11-11T15:40:20;11.55;;;8.52;;